createdAt,value
2022-12-29T00:00:54.272Z,7.63
2022-12-29T00:03:57.164Z,7.17
2022-12-29T00:07:00.742Z,6.67
2022-12-29T00:10:03.257Z,8.77
2022-12-29T00:13:24.015Z,5.10
2022-12-29T00:16:28.246Z,5.30
2022-12-29T00:19:49.128Z,6.88
2022-12-29T00:23:09.897Z,8.33
2022-12-29T00:26:36.048Z,6.97
2022-12-29T00:29:56.704Z,6.47
2022-12-29T00:33:17.449Z,5.93
2022-12-29T00:36:32.585Z,6.43
2022-12-29T00:39:53.897Z,5.30
2022-12-29T00:43:14.555Z,7.23
2022-12-29T00:46:20.029Z,5.23
2022-12-29T00:49:31.656Z,6.07
2022-12-29T00:52:33.786Z,5.97
2022-12-29T00:55:40.191Z,7.07
2022-12-29T00:58:42.312Z,5.53
2022-12-29T01:01:45.604Z,6.43
2022-12-29T01:04:48.005Z,5.60
2022-12-29T01:07:50.208Z,5.57
2022-12-29T01:11:01.692Z,5.27
2022-12-29T01:14:04.335Z,6.37
2022-12-29T01:17:07.043Z,4.60
2022-12-29T01:20:10.205Z,5.10
2022-12-29T01:23:12.384Z,4.23
2022-12-29T01:26:16.891Z,3.47
2022-12-29T01:29:23.523Z,4.50
2022-12-29T01:32:28.381Z,4.53
2022-12-29T01:35:30.444Z,3.93
2022-12-29T01:38:33.269Z,4.17
2022-12-29T01:41:35.950Z,5.27
2022-12-29T01:44:56.386Z,4.53
2022-12-29T01:48:02.780Z,3.83
2022-12-29T01:51:04.977Z,5.57
2022-12-29T01:54:13.571Z,4.03
2022-12-29T01:57:21.716Z,3.57
2022-12-29T02:00:23.791Z,5.87
2022-12-29T02:03:27.920Z,4.13
2022-12-29T02:06:35.959Z,4.40
2022-12-29T02:09:38.166Z,4.73
2022-12-29T02:12:41.363Z,4.97
2022-12-29T02:15:59.739Z,4.27
2022-12-29T02:19:10.724Z,4.80
2022-12-29T02:22:38.523Z,3.33
2022-12-29T02:26:18.156Z,5.13
2022-12-29T02:29:35.846Z,4.07
2022-12-29T02:33:14.847Z,3.97
2022-12-29T02:36:31.080Z,4.27
2022-12-29T02:39:35.796Z,3.13
2022-12-29T02:46:04.132Z,3.00
2022-12-29T02:49:33.743Z,4.20
2022-12-29T02:52:43.907Z,2.80
2022-12-29T02:55:50.674Z,2.43
2022-12-29T02:58:53.602Z,2.97
2022-12-29T03:02:36.893Z,3.10
2022-12-29T03:06:08.502Z,2.67
2022-12-29T03:09:42.722Z,1.80
2022-12-29T03:13:28.695Z,2.23
2022-12-29T03:19:51.822Z,2.03
2022-12-29T03:23:02.202Z,3.00
2022-12-29T03:26:09.871Z,2.13
2022-12-29T03:29:13.766Z,2.47
2022-12-29T03:32:20.395Z,1.98
2022-12-29T03:35:26.157Z,2.43
2022-12-29T03:38:51.806Z,1.93
2022-12-29T03:42:01.509Z,2.00
2022-12-29T03:45:06.327Z,2.30
2022-12-29T03:48:08.488Z,2.23
2022-12-29T03:51:10.672Z,2.57
2022-12-29T03:54:12.811Z,2.50
2022-12-29T03:57:16.082Z,3.03
2022-12-29T04:00:18.402Z,3.47
2022-12-29T04:03:20.568Z,2.37
2022-12-29T04:06:22.783Z,2.10
2022-12-29T04:09:24.835Z,2.43
2022-12-29T04:12:27.398Z,1.67
2022-12-29T04:15:29.452Z,2.77
2022-12-29T04:18:31.488Z,2.17
2022-12-29T04:21:34.339Z,2.27
2022-12-29T04:24:38.292Z,1.77
2022-12-29T04:27:40.372Z,1.80
2022-12-29T04:30:43.888Z,2.20
2022-12-29T04:33:45.948Z,2.07
2022-12-29T04:36:48.201Z,3.27
2022-12-29T04:39:50.301Z,1.70
2022-12-29T04:42:53.876Z,3.00
2022-12-29T04:45:57.837Z,2.27
2022-12-29T04:49:01.866Z,2.80
2022-12-29T04:52:04.170Z,2.60
2022-12-29T04:55:07.205Z,1.73
2022-12-29T04:58:09.838Z,2.30
2022-12-29T05:01:12.228Z,2.90
2022-12-29T05:04:14.598Z,2.93
2022-12-29T05:07:16.955Z,2.67
2022-12-29T05:10:20.704Z,2.80
2022-12-29T05:13:22.785Z,3.17
2022-12-29T05:16:24.889Z,3.23
2022-12-29T05:19:26.989Z,2.37
2022-12-29T05:22:29.086Z,2.33
2022-12-29T05:25:31.207Z,2.60
2022-12-29T05:28:33.381Z,1.83
2022-12-29T05:31:36.857Z,2.47
2022-12-29T05:34:39.037Z,2.83
2022-12-29T05:37:41.187Z,2.00
2022-12-29T05:40:44.671Z,3.53
2022-12-29T05:43:47.183Z,2.10
2022-12-29T05:46:49.353Z,1.80
2022-12-29T05:49:52.670Z,2.60
2022-12-29T05:52:54.739Z,2.83
2022-12-29T05:55:56.931Z,2.37
2022-12-29T05:58:59.031Z,2.80
2022-12-29T06:02:01.322Z,3.90
2022-12-29T06:05:03.642Z,2.60
2022-12-29T06:08:05.890Z,2.87
2022-12-29T06:11:07.933Z,2.77
2022-12-29T06:14:10.806Z,2.27
2022-12-29T06:17:12.867Z,3.13
2022-12-29T06:20:15.035Z,2.70
2022-12-29T06:23:19.694Z,2.30
